Etusivu
METAR-TAF:

METAR-TAF

Lentoasemat :

Grenchen, Sveitsi

Leveyspiiri: 47-10-53N, Pituuspiiri: 007-24-59E, korkeus merenpinnasta: 430 m

Tämänhetkinen sää

Tämä raportti tehtiin 20 minuuttia sitten, kello 03.50 UTC
Tuuli 3 kn koillisesta
Lämpötila -1°C
Kosteus 100%
Ilmanpaine 1024 hPa
Näkyvyys: 2800 m
utua

METAR: LSZG 190350Z AUTO 05003KT 2800 BR NCD M01/M01 Q1024

Aika: 05:10 (04:10 UTC)

Sääennuste

Tämä raportti tehtiin 9 tuntia ja 45 minuuttia sitten, kello 18.25 UTC
Ennuste voimassa 18. päivästä klo 18 UTC - 18. päivään klo 24 UTC
Tuuli 4 kn luoteesta
Näkyvyys 10 km tai enemmän
Muutamia pilviä 2500 ft:n korkeudessa
Hajanaisia pilviä 7500 ft:n korkeudessa
Tulossa
18. päivästä klo 19 UTC - 18. päivään klo 22 UTC
Näkyvyys 10 km tai enemmän
ei pilviä alle 1500 m:ssä eikä cumulonimbus-pilviä

TAF: LSZG 181825Z 1818/1824 31004KT 9999 FEW025 SCT075 BECMG 1819/1822 CAVOK

Säähavainnot ja -ennusteet yli 4000 lentoasemalta (METAR- ja TAF-raportit).

Käytössä olevat sääasemat on merkitty karttaan keltaisilla ja punaisilla pisteillä.

Aseta hiiri pisteen päälle nähdäksesi sääaseman nimen.

Klikkaa sitten nähdäksesi säähavainnot ja -ennusteet.

Kartan vaihtaminen: klikkaa mustalla rastilla varustettuja vihreitä pisteitä, niin voit zoomata sisään; viivalla varustettua vihreää pistettä, niin voit zoomata ulos tai vihreitä nuolia, niin pääset viereisille kartoille.


METAR-TAF: